createdAt,value
2019-04-30T00:00:48.462Z,8.90
2019-04-30T00:03:21.621Z,8.80
2019-04-30T00:05:53.736Z,8.80
2019-04-30T00:08:20.230Z,8.80
2019-04-30T00:10:48.658Z,8.80
2019-04-30T00:13:20.601Z,8.80
2019-04-30T00:15:48.040Z,8.80
2019-04-30T00:18:17.426Z,8.80
2019-04-30T00:20:47.082Z,8.90
2019-04-30T00:23:17.762Z,8.80
2019-04-30T00:25:46.087Z,8.80
2019-04-30T00:28:15.497Z,8.80
2019-04-30T00:30:47.705Z,8.90
2019-04-30T00:33:15.282Z,8.80
2019-04-30T00:35:45.404Z,8.90
2019-04-30T00:38:15.163Z,8.90
2019-04-30T00:40:45.090Z,8.90
2019-04-30T00:43:15.467Z,8.90
2019-04-30T00:45:47.093Z,8.90
2019-04-30T00:48:19.339Z,8.90
2019-04-30T00:50:45.748Z,8.90
2019-04-30T00:53:14.853Z,8.90
2019-04-30T00:55:48.383Z,8.90
2019-04-30T00:58:19.699Z,8.90
2019-04-30T01:00:47.233Z,8.80
2019-04-30T01:03:20.503Z,8.80
2019-04-30T01:05:49.553Z,8.80
2019-04-30T01:08:21.175Z,8.80
2019-04-30T01:10:48.577Z,8.80
2019-04-30T01:13:19.061Z,8.80
2019-04-30T01:15:49.082Z,8.80
2019-04-30T01:18:19.317Z,8.80
2019-04-30T01:20:48.734Z,8.80
2019-04-30T01:23:19.391Z,8.80
2019-04-30T01:25:51.341Z,8.80
2019-04-30T01:28:23.148Z,8.70
2019-04-30T01:30:49.803Z,8.80
2019-04-30T01:33:19.989Z,8.70
2019-04-30T01:35:48.872Z,8.80
2019-04-30T01:38:18.928Z,8.70
2019-04-30T01:43:23.550Z,8.70
2019-04-30T01:45:48.649Z,8.70
2019-04-30T01:48:19.284Z,8.70
2019-04-30T01:50:48.823Z,8.70
2019-04-30T01:53:18.592Z,8.70
2019-04-30T01:55:49.504Z,8.70
2019-04-30T01:58:19.841Z,8.70
2019-04-30T02:00:52.886Z,8.70
2019-04-30T02:03:21.575Z,8.80
2019-04-30T02:05:50.249Z,8.80
2019-04-30T02:08:19.571Z,8.70
2019-04-30T02:10:49.211Z,8.70
2019-04-30T02:13:18.857Z,8.70
2019-04-30T02:15:49.267Z,8.70
2019-04-30T02:18:19.513Z,8.70
2019-04-30T02:20:49.738Z,8.70
2019-04-30T02:23:19.637Z,8.70
2019-04-30T02:25:48.971Z,8.70
2019-04-30T02:28:18.981Z,8.70
2019-04-30T02:30:50.503Z,8.70
2019-04-30T02:33:19.915Z,8.80
2019-04-30T02:35:50.471Z,8.80
2019-04-30T02:38:20.818Z,8.70
2019-04-30T02:40:50.819Z,8.70
2019-04-30T02:43:21.711Z,8.70
2019-04-30T02:45:52.814Z,8.70
2019-04-30T02:48:23.603Z,8.70
2019-04-30T02:50:55.387Z,8.70
2019-04-30T02:53:50.594Z,8.70
2019-04-30T02:56:20.675Z,8.70
2019-04-30T02:58:50.505Z,8.70
2019-04-30T03:01:20.405Z,8.70
2019-04-30T03:03:50.108Z,8.70
2019-04-30T03:06:20.419Z,8.70
2019-04-30T03:08:51.187Z,8.70
2019-04-30T03:11:20.780Z,8.70
2019-04-30T03:13:49.802Z,8.70
2019-04-30T03:16:21.039Z,8.70
2019-04-30T03:18:54.215Z,8.70
2019-04-30T03:21:41.088Z,8.70
2019-04-30T03:24:10.977Z,8.70
2019-04-30T03:26:40.441Z,8.70
2019-04-30T03:29:11.087Z,8.60
2019-04-30T03:31:44.374Z,8.60
2019-04-30T03:34:16.520Z,8.60
2019-04-30T03:36:40.706Z,8.60
2019-04-30T03:39:10.884Z,8.60
2019-04-30T03:41:41.327Z,8.50
2019-04-30T03:44:20.886Z,8.50
2019-04-30T03:46:40.709Z,8.60
2019-04-30T03:49:12.655Z,8.60
2019-04-30T03:51:40.411Z,8.60
2019-04-30T03:54:10.102Z,8.60
2019-04-30T03:56:39.800Z,8.60
2019-04-30T03:59:10.624Z,8.60
2019-04-30T04:01:43.906Z,8.50
2019-04-30T04:04:26.544Z,8.50
2019-04-30T04:07:00.122Z,8.60
2019-04-30T04:09:36.646Z,8.60
2019-04-30T04:12:23.623Z,8.60
2019-04-30T04:14:52.792Z,8.60
2019-04-30T04:17:22.146Z,8.60
2019-04-30T04:19:53.789Z,8.60
2019-04-30T04:22:22.646Z,8.60
2019-04-30T04:24:51.321Z,8.60
2019-04-30T04:27:20.025Z,8.60
2019-04-30T04:29:51.134Z,8.70
2019-04-30T04:32:23.612Z,8.70
2019-04-30T04:34:50.535Z,8.70
2019-04-30T04:37:20.365Z,8.60
2019-04-30T04:39:50.042Z,8.60
2019-04-30T04:42:19.797Z,8.60
2019-04-30T04:44:50.219Z,8.60
2019-04-30T04:47:20.224Z,8.70
2019-04-30T04:49:50.680Z,8.70
2019-04-30T04:52:21.662Z,8.70
2019-04-30T04:54:50.884Z,8.70
2019-04-30T04:57:22.718Z,8.70
2019-04-30T04:59:50.355Z,8.70
2019-04-30T05:02:32.551Z,8.70
2019-04-30T05:05:00.239Z,8.70
2019-04-30T05:07:29.038Z,8.70
2019-04-30T05:10:00.617Z,8.70
2019-04-30T05:12:29.718Z,8.70
2019-04-30T05:14:59.741Z,8.60
2019-04-30T05:17:31.672Z,8.60
2019-04-30T05:19:59.343Z,8.70
2019-04-30T05:22:29.417Z,8.70
2019-04-30T05:24:58.952Z,8.80
2019-04-30T05:27:27.839Z,8.80
2019-04-30T05:29:56.532Z,8.80
2019-04-30T05:32:25.221Z,8.80
2019-04-30T05:34:53.937Z,8.80
2019-04-30T05:37:23.016Z,8.80
2019-04-30T05:39:51.699Z,8.80
2019-04-30T05:42:22.046Z,8.80
2019-04-30T05:44:50.738Z,8.90
2019-04-30T05:47:19.692Z,8.90
2019-04-30T05:49:49.065Z,8.80
2019-04-30T05:52:19.908Z,8.90
2019-04-30T05:54:48.751Z,8.90
2019-04-30T05:57:19.596Z,8.90
2019-04-30T05:59:48.687Z,8.90
2019-04-30T06:02:19.376Z,8.90
2019-04-30T06:04:48.934Z,8.90
2019-04-30T06:07:18.844Z,8.90
2019-04-30T06:09:59.668Z,8.90
2019-04-30T06:12:35.936Z,8.90
2019-04-30T06:15:24.099Z,9.00
2019-04-30T06:18:00.264Z,9.10
2019-04-30T06:20:24.282Z,9.10
2019-04-30T06:22:53.797Z,9.10
2019-04-30T07:07:14.387Z,9.60
2019-04-30T07:09:52.722Z,9.60
2019-04-30T07:12:27.208Z,9.60
2019-04-30T07:14:50.830Z,9.60
2019-04-30T07:17:19.612Z,9.60
2019-04-30T07:19:54.275Z,9.60
2019-04-30T07:22:23.914Z,9.60
2019-04-30T07:24:49.707Z,9.70
2019-04-30T07:27:23.757Z,9.60
2019-04-30T07:29:49.505Z,9.60
2019-04-30T07:32:19.709Z,9.60
2019-04-30T07:34:49.520Z,9.60
2019-04-30T07:37:24.241Z,9.70
2019-04-30T07:39:49.577Z,9.70
2019-04-30T07:42:19.272Z,9.80
2019-04-30T07:44:50.214Z,9.80
2019-04-30T07:47:19.685Z,9.90
2019-04-30T07:49:52.935Z,9.90
2019-04-30T07:52:21.534Z,9.90
2019-04-30T07:54:51.930Z,10.00
2019-04-30T07:57:20.300Z,10.00
2019-04-30T07:59:49.845Z,10.00
2019-04-30T08:02:20.778Z,9.90
2019-04-30T08:04:51.317Z,9.90
2019-04-30T08:07:20.606Z,10.00
2019-04-30T08:09:49.642Z,10.00
2019-04-30T08:12:26.290Z,10.00
2019-04-30T08:14:55.162Z,10.10
2019-04-30T08:17:24.137Z,10.10
2019-04-30T08:19:52.807Z,10.10
2019-04-30T08:22:21.501Z,10.20
2019-04-30T08:24:50.227Z,10.20
2019-04-30T08:27:19.674Z,10.20
2019-04-30T08:29:49.869Z,10.30
2019-04-30T08:32:19.174Z,10.30
2019-04-30T08:34:49.939Z,10.30
2019-04-30T08:37:20.292Z,10.40
2019-04-30T08:39:49.643Z,10.40
2019-04-30T08:42:29.019Z,10.40
2019-04-30T08:44:48.815Z,10.40
2019-04-30T08:47:18.826Z,10.30
2019-04-30T08:49:49.729Z,10.30
2019-04-30T08:52:19.473Z,10.40
2019-04-30T08:54:49.565Z,10.40
2019-04-30T08:57:19.218Z,10.50
2019-04-30T08:59:49.447Z,10.50
2019-04-30T09:02:19.694Z,10.50
2019-04-30T09:04:50.471Z,10.50
2019-04-30T09:07:19.676Z,10.50
2019-04-30T09:09:48.946Z,10.50
2019-04-30T09:12:19.592Z,10.30
2019-04-30T09:14:49.068Z,10.40
2019-04-30T09:17:19.861Z,10.40
2019-04-30T09:19:49.058Z,10.40
2019-04-30T09:22:19.535Z,10.50
2019-04-30T09:24:49.697Z,10.60
2019-04-30T09:27:19.530Z,10.50
2019-04-30T09:29:49.256Z,10.50
2019-04-30T09:32:19.342Z,10.40
2019-04-30T09:34:48.931Z,10.40
2019-04-30T09:37:18.739Z,10.40
2019-04-30T09:39:49.492Z,10.40
2019-04-30T09:42:19.541Z,10.30
2019-04-30T09:44:49.222Z,10.40
2019-04-30T09:47:20.092Z,10.40
2019-04-30T09:49:49.326Z,10.50
2019-04-30T09:52:19.339Z,10.50
2019-04-30T09:54:50.016Z,10.50
2019-04-30T09:57:19.363Z,10.50
2019-04-30T09:59:48.642Z,10.60
2019-04-30T10:02:19.197Z,10.50
2019-04-30T10:04:48.548Z,10.60
2019-04-30T10:07:19.361Z,10.50
2019-04-30T10:09:50.670Z,10.50
2019-04-30T10:12:19.545Z,10.50
2019-04-30T10:14:49.494Z,10.50
2019-04-30T10:17:28.853Z,10.40
2019-04-30T10:19:57.475Z,10.40
2019-04-30T10:22:26.261Z,10.40
2019-04-30T10:24:55.074Z,10.40
2019-04-30T10:27:25.264Z,10.50
2019-04-30T10:29:54.261Z,10.50
2019-04-30T10:32:23.035Z,10.50
2019-04-30T10:34:51.717Z,10.60
2019-04-30T10:37:20.603Z,10.60
2019-04-30T10:39:49.360Z,10.70
2019-04-30T10:42:18.230Z,10.60
2019-04-30T10:44:46.926Z,10.60
2019-04-30T10:47:15.835Z,10.70
2019-04-30T10:49:44.526Z,10.90
2019-04-30T10:52:13.213Z,10.90
2019-04-30T10:54:41.929Z,10.90
2019-04-30T10:57:10.547Z,11.10
2019-04-30T10:59:39.238Z,11.10
2019-04-30T11:02:09.056Z,11.10
2019-04-30T11:04:37.874Z,11.20
2019-04-30T11:07:08.535Z,11.20
2019-04-30T11:09:37.027Z,11.20
2019-04-30T11:12:06.381Z,11.10
2019-04-30T11:14:35.081Z,11.20
2019-04-30T11:17:04.112Z,11.30
2019-04-30T11:19:33.091Z,11.30
2019-04-30T11:22:01.924Z,11.30
2019-04-30T11:24:38.055Z,11.30
2019-04-30T11:27:01.962Z,11.40
2019-04-30T11:29:31.372Z,11.50
2019-04-30T11:32:02.146Z,11.40
2019-04-30T11:34:31.146Z,11.40
2019-04-30T11:36:59.833Z,11.40
2019-04-30T11:39:29.748Z,11.40
2019-04-30T11:41:58.617Z,11.30
2019-04-30T11:44:31.250Z,11.40
2019-04-30T11:47:01.589Z,11.40
2019-04-30T11:49:30.230Z,11.50
2019-04-30T11:51:58.919Z,11.50
2019-04-30T11:54:29.702Z,11.40
2019-04-30T11:56:58.810Z,11.40
2019-04-30T11:59:29.594Z,11.30
2019-04-30T12:01:59.696Z,11.30
2019-04-30T12:04:29.925Z,11.40
2019-04-30T12:07:00.305Z,11.30
2019-04-30T12:09:38.551Z,11.30
2019-04-30T12:12:09.047Z,11.40
2019-04-30T12:14:39.451Z,11.40
2019-04-30T12:17:08.373Z,11.50
2019-04-30T12:19:38.793Z,11.60
2019-04-30T12:22:07.542Z,11.70
2019-04-30T12:24:36.191Z,11.70
2019-04-30T12:27:04.866Z,11.70
2019-04-30T12:29:33.550Z,11.70
2019-04-30T12:32:02.195Z,11.70
2019-04-30T12:34:30.806Z,11.70
2019-04-30T12:36:59.682Z,11.80
2019-04-30T12:39:29.967Z,11.80
2019-04-30T12:42:00.676Z,11.80
2019-04-30T12:44:29.262Z,11.80
2019-04-30T12:46:58.642Z,11.80
2019-04-30T12:49:28.803Z,11.80
2019-04-30T12:52:01.979Z,11.80
2019-04-30T12:54:32.301Z,11.90
2019-04-30T12:57:02.630Z,11.90
2019-04-30T12:59:31.716Z,11.80
2019-04-30T13:02:00.816Z,11.90
2019-04-30T13:04:29.510Z,11.90
2019-04-30T13:07:01.443Z,11.90
2019-04-30T13:09:30.330Z,11.90
2019-04-30T13:12:00.454Z,11.90
2019-04-30T13:14:30.436Z,11.80
2019-04-30T13:16:59.582Z,11.90
2019-04-30T13:19:28.197Z,11.90
2019-04-30T13:21:58.678Z,12.00
2019-04-30T13:24:31.199Z,12.10
2019-04-30T13:26:59.491Z,12.10
2019-04-30T13:29:42.081Z,12.20
2019-04-30T13:32:10.833Z,12.30
2019-04-30T13:34:50.071Z,12.40
2019-04-30T13:37:19.235Z,12.40
2019-04-30T13:40:04.510Z,12.40
2019-04-30T13:42:34.822Z,12.60
2019-04-30T13:45:04.778Z,12.50
2019-04-30T13:47:33.502Z,12.50
2019-04-30T13:50:02.242Z,12.60
2019-04-30T13:52:31.076Z,12.60
2019-04-30T13:54:59.882Z,12.60
2019-04-30T13:57:28.506Z,12.70
2019-04-30T13:59:58.630Z,12.70
2019-04-30T14:02:29.532Z,12.80
2019-04-30T14:04:59.894Z,12.80
2019-04-30T14:07:46.357Z,12.80
2019-04-30T14:10:19.440Z,12.70
2019-04-30T14:12:52.762Z,12.60
2019-04-30T14:15:21.795Z,12.50
2019-04-30T14:17:50.479Z,12.50
2019-04-30T14:20:19.534Z,12.50
2019-04-30T14:22:48.322Z,12.60
2019-04-30T14:25:17.005Z,12.60
2019-04-30T14:27:52.261Z,12.60
2019-04-30T14:30:19.190Z,12.60
2019-04-30T14:32:50.577Z,12.60
2019-04-30T14:35:18.757Z,12.70
2019-04-30T14:37:49.454Z,12.80
2019-04-30T14:40:20.486Z,12.80
2019-04-30T14:42:51.335Z,12.80
2019-04-30T14:45:22.527Z,12.90
2019-04-30T14:48:05.841Z,12.70
2019-04-30T14:50:36.247Z,12.70
2019-04-30T14:53:21.535Z,12.70
2019-04-30T14:56:11.279Z,12.80
2019-04-30T14:58:41.925Z,12.70
2019-04-30T15:01:14.969Z,12.90
2019-04-30T15:03:43.576Z,13.00
2019-04-30T15:06:12.283Z,13.00
2019-04-30T15:08:40.968Z,13.10
2019-04-30T15:11:10.024Z,13.30
2019-04-30T15:13:39.497Z,13.40
2019-04-30T15:16:08.169Z,13.60
2019-04-30T15:18:38.759Z,13.80
2019-04-30T15:21:09.451Z,13.80
2019-04-30T15:23:58.589Z,14.00
2019-04-30T15:26:25.766Z,14.10
2019-04-30T15:28:57.219Z,14.10
2019-04-30T15:31:24.774Z,14.20
2019-04-30T15:34:13.539Z,14.00
2019-04-30T15:36:42.218Z,14.00
2019-04-30T15:39:13.620Z,14.10
2019-04-30T15:41:42.421Z,14.10
2019-04-30T15:44:11.282Z,14.10
2019-04-30T15:46:40.056Z,14.30
2019-04-30T15:49:08.916Z,15.10
2019-04-30T15:51:37.862Z,15.80
2019-04-30T15:54:06.475Z,15.90
2019-04-30T15:56:37.630Z,16.00
2019-04-30T15:59:25.589Z,16.20
2019-04-30T16:02:03.402Z,16.20
2019-04-30T16:04:49.945Z,16.30
2019-04-30T16:07:19.584Z,16.50
2019-04-30T16:09:53.022Z,16.60
2019-04-30T16:12:26.155Z,16.60
2019-04-30T16:14:54.902Z,16.30
2019-04-30T16:17:25.059Z,15.90
2019-04-30T16:19:53.777Z,15.80
2019-04-30T16:22:22.521Z,15.60
2019-04-30T16:24:51.125Z,15.60
2019-04-30T16:29:49.861Z,15.20
2019-04-30T16:32:19.374Z,14.90
2019-04-30T16:34:49.896Z,14.80
2019-04-30T16:37:20.120Z,14.60
2019-04-30T16:39:49.002Z,14.50
2019-04-30T16:42:19.057Z,14.40
2019-04-30T16:44:47.845Z,14.30
2019-04-30T16:47:17.094Z,14.20
2019-04-30T16:49:46.080Z,14.20
2019-04-30T16:52:14.898Z,14.10
2019-04-30T16:54:43.590Z,14.00
2019-04-30T16:57:12.299Z,14.00
2019-04-30T16:59:44.041Z,14.00
2019-04-30T17:02:13.818Z,13.80
2019-04-30T17:04:44.272Z,13.80
2019-04-30T17:07:31.082Z,13.80
2019-04-30T17:10:10.494Z,13.90
2019-04-30T17:12:40.817Z,13.80
2019-04-30T17:15:14.422Z,13.80
2019-04-30T17:17:43.110Z,13.90
2019-04-30T17:20:12.289Z,13.80
2019-04-30T17:22:41.517Z,13.70
2019-04-30T17:25:10.921Z,13.70
2019-04-30T17:27:39.895Z,13.60
2019-04-30T17:30:11.082Z,13.50
2019-04-30T17:32:40.073Z,13.40
2019-04-30T17:35:09.250Z,13.40
2019-04-30T17:37:38.031Z,13.30
2019-04-30T17:40:09.413Z,13.20
2019-04-30T17:42:38.208Z,13.20
2019-04-30T17:45:09.460Z,13.20
2019-04-30T17:47:38.290Z,13.10
2019-04-30T17:50:08.949Z,13.10
2019-04-30T17:52:37.931Z,13.00
2019-04-30T17:55:09.694Z,13.00
2019-04-30T17:57:40.041Z,13.00
2019-04-30T18:00:19.187Z,12.90
2019-04-30T18:02:41.849Z,12.90
2019-04-30T18:05:11.398Z,12.80
2019-04-30T18:07:40.269Z,12.80
2019-04-30T18:10:11.077Z,12.70
2019-04-30T18:12:39.858Z,12.70
2019-04-30T18:15:17.980Z,12.60
2019-04-30T18:17:51.358Z,12.60
2019-04-30T18:20:21.874Z,12.50
2019-04-30T18:22:52.207Z,12.50
2019-04-30T18:25:28.662Z,12.40
2019-04-30T18:27:59.509Z,12.40
2019-04-30T18:30:35.890Z,12.40
2019-04-30T18:33:05.050Z,12.30
2019-04-30T18:35:34.139Z,12.30
2019-04-30T18:38:03.202Z,12.20
2019-04-30T18:40:31.882Z,12.20
2019-04-30T18:43:00.490Z,12.10
2019-04-30T18:45:29.590Z,12.00
2019-04-30T18:47:59.460Z,11.90
2019-04-30T18:50:28.627Z,11.80
2019-04-30T18:52:58.974Z,11.70
2019-04-30T18:55:27.753Z,11.60
2019-04-30T18:57:59.163Z,11.50
2019-04-30T19:00:29.421Z,11.40
2019-04-30T19:02:59.708Z,11.30
2019-04-30T19:05:29.422Z,11.30
2019-04-30T19:08:16.839Z,11.20
2019-04-30T19:10:50.128Z,11.10
2019-04-30T19:13:30.126Z,11.10
2019-04-30T19:16:23.011Z,11.10
2019-04-30T19:19:00.688Z,11.00
2019-04-30T19:23:58.680Z,10.90
2019-04-30T19:26:29.306Z,10.90
2019-04-30T19:28:58.404Z,10.90
2019-04-30T19:31:29.571Z,10.90
2019-04-30T19:33:58.921Z,10.90
2019-04-30T19:36:37.222Z,10.80
2019-04-30T19:38:59.762Z,10.80
2019-04-30T19:41:29.641Z,10.80
2019-04-30T19:43:58.283Z,10.80
2019-04-30T19:46:26.942Z,10.70
2019-04-30T19:48:55.670Z,10.70
2019-04-30T19:51:24.630Z,10.70
2019-04-30T19:53:53.257Z,10.60
2019-04-30T19:56:22.309Z,10.60
2019-04-30T19:59:01.603Z,10.60
2019-04-30T20:01:21.333Z,10.50
2019-04-30T20:03:50.120Z,10.60
2019-04-30T20:06:19.168Z,10.60
2019-04-30T20:08:47.928Z,10.60
2019-04-30T20:11:16.641Z,10.60
2019-04-30T20:16:13.461Z,10.60
2019-04-30T20:18:42.149Z,10.60
2019-04-30T20:21:28.039Z,10.50
2019-04-30T20:23:51.948Z,10.50
2019-04-30T20:26:20.643Z,10.40
2019-04-30T20:28:49.331Z,10.40
2019-04-30T20:31:19.094Z,10.40
2019-04-30T20:33:48.949Z,10.40
2019-04-30T20:36:19.025Z,10.30
2019-04-30T20:38:55.313Z,10.30
2019-04-30T20:41:25.602Z,10.30
2019-04-30T20:43:54.298Z,10.30
2019-04-30T20:46:31.477Z,10.30
2019-04-30T20:48:53.357Z,10.30
2019-04-30T20:51:21.972Z,10.20
2019-04-30T20:53:50.682Z,10.20
2019-04-30T20:56:19.302Z,10.10
2019-04-30T20:58:57.109Z,10.00
2019-04-30T21:01:19.383Z,10.00
2019-04-30T21:03:48.238Z,9.90
2019-04-30T21:06:16.922Z,9.80
2019-04-30T21:08:45.637Z,9.80
2019-04-30T21:11:14.330Z,9.70
2019-04-30T21:13:43.018Z,9.70
2019-04-30T21:16:11.757Z,9.60
2019-04-30T21:18:40.442Z,9.60
2019-04-30T21:21:09.126Z,9.50
2019-04-30T21:23:39.234Z,9.50
2019-04-30T21:26:08.548Z,9.50
2019-04-30T21:28:39.200Z,9.50
2019-04-30T21:31:25.842Z,9.40
2019-04-30T21:33:58.254Z,9.40
2019-04-30T21:36:28.481Z,9.40
2019-04-30T21:38:59.068Z,9.40
2019-04-30T21:41:29.742Z,9.40
2019-04-30T21:43:58.484Z,9.40
2019-04-30T21:46:29.110Z,9.30
2019-04-30T21:48:58.716Z,9.30
2019-04-30T21:51:27.998Z,9.30
2019-04-30T21:53:56.713Z,9.30
2019-04-30T21:56:25.674Z,9.30
2019-04-30T21:58:54.363Z,9.30
2019-04-30T22:03:52.515Z,9.20
2019-04-30T22:06:21.197Z,9.20
2019-04-30T22:08:49.958Z,9.20
2019-04-30T22:11:19.808Z,9.20
2019-04-30T22:13:49.401Z,9.10
2019-04-30T22:16:20.144Z,9.10
2019-04-30T22:18:48.643Z,9.10
2019-04-30T22:21:17.419Z,9.00
2019-04-30T22:23:46.895Z,9.00
2019-04-30T22:26:15.583Z,9.00
2019-04-30T22:28:44.274Z,8.90
2019-04-30T22:31:12.994Z,8.90
2019-04-30T22:33:41.716Z,8.90
2019-04-30T22:36:12.390Z,8.90
2019-04-30T22:38:45.736Z,9.00
2019-04-30T22:41:14.682Z,9.00
2019-04-30T22:43:43.361Z,9.00
2019-04-30T22:46:13.709Z,9.10
2019-04-30T22:48:42.593Z,9.10
2019-04-30T22:51:11.284Z,9.20
2019-04-30T22:53:40.033Z,9.10
2019-04-30T22:56:08.798Z,9.10
2019-04-30T22:58:37.585Z,9.10
2019-04-30T23:01:13.724Z,9.10
2019-04-30T23:03:42.502Z,9.20
2019-04-30T23:06:11.134Z,9.20
2019-04-30T23:08:39.798Z,9.20
2019-04-30T23:11:08.489Z,9.20
2019-04-30T23:13:37.171Z,9.20
2019-04-30T23:16:06.365Z,9.20
2019-04-30T23:18:35.009Z,9.10
2019-04-30T23:21:03.654Z,8.80
2019-04-30T23:23:32.720Z,8.80
2019-04-30T23:26:01.470Z,8.80
2019-04-30T23:28:30.078Z,8.80
2019-04-30T23:30:58.727Z,8.70
2019-04-30T23:33:27.415Z,8.60
2019-04-30T23:35:56.098Z,8.60
2019-04-30T23:38:24.750Z,8.60
2019-04-30T23:40:53.533Z,8.50
2019-04-30T23:43:22.218Z,8.40
2019-04-30T23:45:50.934Z,8.40
2019-04-30T23:48:19.537Z,8.30
2019-04-30T23:50:48.218Z,8.30
2019-04-30T23:53:16.934Z,8.30
2019-04-30T23:55:45.550Z,8.30
2019-04-30T23:58:14.279Z,8.30
